sensor_id;sensor_type;location;lat;lon;timestamp;P1;durP1;ratioP1;P2;durP2;ratioP2
12155;SDS011;6141;49.092;8.516;2023-04-15T00:00:55;1.30;;;1.20;;
12155;SDS011;6141;49.092;8.516;2023-04-15T00:03:23;1.30;;;1.20;;
12155;SDS011;6141;49.092;8.516;2023-04-15T00:05:52;1.40;;;1.30;;
12155;SDS011;6141;49.092;8.516;2023-04-15T00:08:22;1.60;;;1.50;;
12155;SDS011;6141;49.092;8.516;2023-04-15T00:10:50;1.50;;;1.40;;
12155;SDS011;6141;49.092;8.516;2023-04-15T00:13:18;1.57;;;1.47;;
12155;SDS011;6141;49.092;8.516;2023-04-15T00:15:46;1.50;;;1.40;;
12155;SDS011;6141;49.092;8.516;2023-04-15T00:18:14;1.60;;;1.50;;
12155;SDS011;6141;49.092;8.516;2023-04-15T00:20:42;1.40;;;1.30;;
12155;SDS011;6141;49.092;8.516;2023-04-15T00:23:10;1.40;;;1.30;;
12155;SDS011;6141;49.092;8.516;2023-04-15T00:25:40;1.37;;;1.27;;
12155;SDS011;6141;49.092;8.516;2023-04-15T00:28:08;1.47;;;1.30;;
12155;SDS011;6141;49.092;8.516;2023-04-15T00:30:38;1.43;;;1.33;;
12155;SDS011;6141;49.092;8.516;2023-04-15T00:33:06;1.50;;;1.40;;
12155;SDS011;6141;49.092;8.516;2023-04-15T00:35:35;1.20;;;1.10;;
12155;SDS011;6141;49.092;8.516;2023-04-15T00:38:03;1.60;;;1.50;;
12155;SDS011;6141;49.092;8.516;2023-04-15T00:40:32;1.30;;;1.20;;
12155;SDS011;6141;49.092;8.516;2023-04-15T00:43:02;1.40;;;1.30;;
12155;SDS011;6141;49.092;8.516;2023-04-15T00:45:30;1.37;;;1.27;;
12155;SDS011;6141;49.092;8.516;2023-04-15T00:47:58;1.60;;;1.50;;
12155;SDS011;6141;49.092;8.516;2023-04-15T00:50:26;2.13;;;1.43;;
12155;SDS011;6141;49.092;8.516;2023-04-15T00:52:54;1.40;;;1.30;;
12155;SDS011;6141;49.092;8.516;2023-04-15T00:55:23;1.50;;;1.40;;
12155;SDS011;6141;49.092;8.516;2023-04-15T00:57:52;1.50;;;1.40;;
12155;SDS011;6141;49.092;8.516;2023-04-15T01:00:22;1.50;;;1.40;;
12155;SDS011;6141;49.092;8.516;2023-04-15T01:02:50;1.63;;;1.53;;
12155;SDS011;6141;49.092;8.516;2023-04-15T01:05:18;1.50;;;1.40;;
12155;SDS011;6141;49.092;8.516;2023-04-15T01:07:47;1.60;;;1.50;;
12155;SDS011;6141;49.092;8.516;2023-04-15T01:10:15;1.70;;;1.60;;
12155;SDS011;6141;49.092;8.516;2023-04-15T01:12:44;1.60;;;1.50;;
12155;SDS011;6141;49.092;8.516;2023-04-15T01:15:12;1.60;;;1.50;;
12155;SDS011;6141;49.092;8.516;2023-04-15T01:17:41;1.60;;;1.50;;
12155;SDS011;6141;49.092;8.516;2023-04-15T01:20:09;1.47;;;1.37;;
12155;SDS011;6141;49.092;8.516;2023-04-15T01:22:38;1.57;;;1.47;;
12155;SDS011;6141;49.092;8.516;2023-04-15T01:25:09;1.53;;;1.43;;
12155;SDS011;6141;49.092;8.516;2023-04-15T01:27:40;1.50;;;1.40;;
12155;SDS011;6141;49.092;8.516;2023-04-15T01:30:08;1.53;;;1.43;;
12155;SDS011;6141;49.092;8.516;2023-04-15T01:32:37;1.93;;;1.57;;
12155;SDS011;6141;49.092;8.516;2023-04-15T01:35:05;2.50;;;1.50;;
12155;SDS011;6141;49.092;8.516;2023-04-15T01:37:34;1.47;;;1.37;;
12155;SDS011;6141;49.092;8.516;2023-04-15T01:40:03;1.47;;;1.33;;
12155;SDS011;6141;49.092;8.516;2023-04-15T01:42:32;1.40;;;1.30;;
12155;SDS011;6141;49.092;8.516;2023-04-15T01:45:03;1.40;;;1.30;;
12155;SDS011;6141;49.092;8.516;2023-04-15T01:47:32;1.50;;;1.40;;
12155;SDS011;6141;49.092;8.516;2023-04-15T01:50:00;1.40;;;1.30;;
12155;SDS011;6141;49.092;8.516;2023-04-15T01:52:28;1.57;;;1.47;;
12155;SDS011;6141;49.092;8.516;2023-04-15T01:54:57;1.40;;;1.30;;
12155;SDS011;6141;49.092;8.516;2023-04-15T01:57:27;1.60;;;1.50;;
12155;SDS011;6141;49.092;8.516;2023-04-15T01:59:55;1.30;;;1.20;;
12155;SDS011;6141;49.092;8.516;2023-04-15T02:02:24;1.40;;;1.30;;
12155;SDS011;6141;49.092;8.516;2023-04-15T02:04:55;1.57;;;1.47;;
12155;SDS011;6141;49.092;8.516;2023-04-15T02:07:23;1.60;;;1.50;;
12155;SDS011;6141;49.092;8.516;2023-04-15T02:09:51;2.00;;;1.30;;
12155;SDS011;6141;49.092;8.516;2023-04-15T02:12:19;1.50;;;1.40;;
12155;SDS011;6141;49.092;8.516;2023-04-15T02:14:57;1.30;;;1.20;;
12155;SDS011;6141;49.092;8.516;2023-04-15T02:17:27;1.30;;;1.20;;
12155;SDS011;6141;49.092;8.516;2023-04-15T02:20:03;1.60;;;1.50;;
12155;SDS011;6141;49.092;8.516;2023-04-15T02:22:32;1.47;;;1.37;;
12155;SDS011;6141;49.092;8.516;2023-04-15T02:25:02;1.67;;;1.57;;
12155;SDS011;6141;49.092;8.516;2023-04-15T02:27:35;1.30;;;1.20;;
12155;SDS011;6141;49.092;8.516;2023-04-15T02:30:05;1.47;;;1.37;;
12155;SDS011;6141;49.092;8.516;2023-04-15T02:32:37;1.60;;;1.50;;
12155;SDS011;6141;49.092;8.516;2023-04-15T02:35:10;1.70;;;1.60;;
12155;SDS011;6141;49.092;8.516;2023-04-15T02:37:40;1.60;;;1.50;;
12155;SDS011;6141;49.092;8.516;2023-04-15T02:40:11;1.40;;;1.30;;
12155;SDS011;6141;49.092;8.516;2023-04-15T02:42:39;1.60;;;1.50;;
12155;SDS011;6141;49.092;8.516;2023-04-15T02:45:11;1.60;;;1.50;;
12155;SDS011;6141;49.092;8.516;2023-04-15T02:47:42;1.50;;;1.40;;
12155;SDS011;6141;49.092;8.516;2023-04-15T02:50:11;1.70;;;1.60;;
12155;SDS011;6141;49.092;8.516;2023-04-15T02:52:41;1.53;;;1.43;;
12155;SDS011;6141;49.092;8.516;2023-04-15T02:55:11;1.50;;;1.40;;
12155;SDS011;6141;49.092;8.516;2023-04-15T02:57:39;1.60;;;1.50;;
12155;SDS011;6141;49.092;8.516;2023-04-15T03:00:09;1.40;;;1.30;;
12155;SDS011;6141;49.092;8.516;2023-04-15T03:02:42;1.60;;;1.50;;
12155;SDS011;6141;49.092;8.516;2023-04-15T03:05:12;1.80;;;1.70;;
12155;SDS011;6141;49.092;8.516;2023-04-15T03:07:46;1.70;;;1.60;;
12155;SDS011;6141;49.092;8.516;2023-04-15T03:10:15;1.77;;;1.67;;
12155;SDS011;6141;49.092;8.516;2023-04-15T03:12:44;1.57;;;1.47;;
12155;SDS011;6141;49.092;8.516;2023-04-15T03:15:16;1.50;;;1.40;;
12155;SDS011;6141;49.092;8.516;2023-04-15T03:17:50;1.47;;;1.37;;
12155;SDS011;6141;49.092;8.516;2023-04-15T03:20:18;1.80;;;1.50;;
12155;SDS011;6141;49.092;8.516;2023-04-15T03:22:47;1.50;;;1.40;;
12155;SDS011;6141;49.092;8.516;2023-04-15T03:25:17;1.70;;;1.60;;
12155;SDS011;6141;49.092;8.516;2023-04-15T03:27:45;2.30;;;1.50;;
12155;SDS011;6141;49.092;8.516;2023-04-15T03:30:13;1.70;;;1.60;;
12155;SDS011;6141;49.092;8.516;2023-04-15T03:32:41;1.60;;;1.50;;
12155;SDS011;6141;49.092;8.516;2023-04-15T03:35:11;1.60;;;1.50;;
12155;SDS011;6141;49.092;8.516;2023-04-15T03:37:39;1.80;;;1.70;;
12155;SDS011;6141;49.092;8.516;2023-04-15T03:40:07;1.50;;;1.40;;
12155;SDS011;6141;49.092;8.516;2023-04-15T03:42:36;1.40;;;1.30;;
12155;SDS011;6141;49.092;8.516;2023-04-15T03:45:04;2.00;;;1.80;;
12155;SDS011;6141;49.092;8.516;2023-04-15T03:47:33;1.60;;;1.50;;
12155;SDS011;6141;49.092;8.516;2023-04-15T03:50:00;2.03;;;1.50;;
12155;SDS011;6141;49.092;8.516;2023-04-15T03:52:30;1.70;;;1.60;;
12155;SDS011;6141;49.092;8.516;2023-04-15T03:54:58;1.60;;;1.50;;
12155;SDS011;6141;49.092;8.516;2023-04-15T03:57:26;2.03;;;1.67;;
12155;SDS011;6141;49.092;8.516;2023-04-15T03:59:54;1.63;;;1.53;;
12155;SDS011;6141;49.092;8.516;2023-04-15T04:02:21;1.63;;;1.50;;
12155;SDS011;6141;49.092;8.516;2023-04-15T04:04:50;1.50;;;1.37;;
12155;SDS011;6141;49.092;8.516;2023-04-15T04:07:18;1.30;;;1.20;;
12155;SDS011;6141;49.092;8.516;2023-04-15T04:09:47;1.60;;;1.50;;
12155;SDS011;6141;49.092;8.516;2023-04-15T04:12:15;1.70;;;1.60;;
12155;SDS011;6141;49.092;8.516;2023-04-15T04:14:43;1.80;;;1.70;;
12155;SDS011;6141;49.092;8.516;2023-04-15T04:17:11;2.03;;;1.93;;
12155;SDS011;6141;49.092;8.516;2023-04-15T04:19:39;1.70;;;1.60;;
12155;SDS011;6141;49.092;8.516;2023-04-15T04:22:07;1.50;;;1.40;;
12155;SDS011;6141;49.092;8.516;2023-04-15T04:24:36;1.77;;;1.67;;
12155;SDS011;6141;49.092;8.516;2023-04-15T04:27:05;1.77;;;1.67;;
12155;SDS011;6141;49.092;8.516;2023-04-15T04:29:35;1.93;;;1.80;;
12155;SDS011;6141;49.092;8.516;2023-04-15T04:32:03;1.47;;;1.37;;
12155;SDS011;6141;49.092;8.516;2023-04-15T04:34:32;1.50;;;1.40;;
12155;SDS011;6141;49.092;8.516;2023-04-15T04:37:00;1.57;;;1.47;;
12155;SDS011;6141;49.092;8.516;2023-04-15T04:39:28;1.70;;;1.60;;
12155;SDS011;6141;49.092;8.516;2023-04-15T04:41:56;1.50;;;1.40;;
12155;SDS011;6141;49.092;8.516;2023-04-15T04:44:25;1.50;;;1.40;;
12155;SDS011;6141;49.092;8.516;2023-04-15T04:46:53;1.80;;;1.70;;
12155;SDS011;6141;49.092;8.516;2023-04-15T04:49:21;1.57;;;1.47;;
12155;SDS011;6141;49.092;8.516;2023-04-15T04:51:49;1.60;;;1.50;;
12155;SDS011;6141;49.092;8.516;2023-04-15T04:54:17;1.60;;;1.50;;
12155;SDS011;6141;49.092;8.516;2023-04-15T04:56:46;1.60;;;1.50;;
12155;SDS011;6141;49.092;8.516;2023-04-15T04:59:14;1.80;;;1.70;;
12155;SDS011;6141;49.092;8.516;2023-04-15T05:01:46;1.97;;;1.87;;
12155;SDS011;6141;49.092;8.516;2023-04-15T05:04:14;1.80;;;1.70;;
12155;SDS011;6141;49.092;8.516;2023-04-15T05:06:42;1.77;;;1.67;;
12155;SDS011;6141;49.092;8.516;2023-04-15T05:09:10;1.50;;;1.40;;
12155;SDS011;6141;49.092;8.516;2023-04-15T05:11:38;1.67;;;1.57;;
12155;SDS011;6141;49.092;8.516;2023-04-15T05:14:06;1.70;;;1.60;;
12155;SDS011;6141;49.092;8.516;2023-04-15T05:16:34;1.80;;;1.70;;
12155;SDS011;6141;49.092;8.516;2023-04-15T05:19:04;1.63;;;1.53;;
12155;SDS011;6141;49.092;8.516;2023-04-15T05:21:32;1.80;;;1.70;;
12155;SDS011;6141;49.092;8.516;2023-04-15T05:24:03;1.60;;;1.50;;
12155;SDS011;6141;49.092;8.516;2023-04-15T05:26:32;1.60;;;1.50;;
12155;SDS011;6141;49.092;8.516;2023-04-15T05:29:00;1.40;;;1.30;;
12155;SDS011;6141;49.092;8.516;2023-04-15T05:31:28;1.53;;;1.43;;
12155;SDS011;6141;49.092;8.516;2023-04-15T05:33:56;1.63;;;1.53;;
12155;SDS011;6141;49.092;8.516;2023-04-15T05:36:26;1.90;;;1.80;;
12155;SDS011;6141;49.092;8.516;2023-04-15T05:38:54;1.70;;;1.60;;
12155;SDS011;6141;49.092;8.516;2023-04-15T05:41:22;1.73;;;1.63;;
12155;SDS011;6141;49.092;8.516;2023-04-15T05:43:50;1.70;;;1.60;;
12155;SDS011;6141;49.092;8.516;2023-04-15T05:46:18;1.70;;;1.60;;
12155;SDS011;6141;49.092;8.516;2023-04-15T05:48:46;1.70;;;1.60;;
12155;SDS011;6141;49.092;8.516;2023-04-15T05:51:14;1.50;;;1.40;;
12155;SDS011;6141;49.092;8.516;2023-04-15T05:53:44;1.53;;;1.43;;
12155;SDS011;6141;49.092;8.516;2023-04-15T05:56:12;1.63;;;1.53;;
12155;SDS011;6141;49.092;8.516;2023-04-15T05:58:40;1.53;;;1.43;;
12155;SDS011;6141;49.092;8.516;2023-04-15T06:01:08;2.53;;;1.70;;
12155;SDS011;6141;49.092;8.516;2023-04-15T06:03:36;1.70;;;1.60;;
12155;SDS011;6141;49.092;8.516;2023-04-15T06:06:05;1.57;;;1.47;;
12155;SDS011;6141;49.092;8.516;2023-04-15T06:08:34;2.20;;;1.60;;
12155;SDS011;6141;49.092;8.516;2023-04-15T06:11:03;1.70;;;1.60;;
12155;SDS011;6141;49.092;8.516;2023-04-15T06:13:31;1.50;;;1.40;;
12155;SDS011;6141;49.092;8.516;2023-04-15T06:16:00;1.43;;;1.33;;
12155;SDS011;6141;49.092;8.516;2023-04-15T06:18:28;1.50;;;1.40;;
12155;SDS011;6141;49.092;8.516;2023-04-15T06:20:56;1.50;;;1.40;;
12155;SDS011;6141;49.092;8.516;2023-04-15T06:23:24;1.70;;;1.60;;
12155;SDS011;6141;49.092;8.516;2023-04-15T06:25:53;1.80;;;1.70;;
12155;SDS011;6141;49.092;8.516;2023-04-15T06:28:22;1.60;;;1.50;;
12155;SDS011;6141;49.092;8.516;2023-04-15T06:30:50;2.40;;;1.70;;
12155;SDS011;6141;49.092;8.516;2023-04-15T06:33:19;1.50;;;1.40;;
12155;SDS011;6141;49.092;8.516;2023-04-15T06:35:47;1.60;;;1.50;;
12155;SDS011;6141;49.092;8.516;2023-04-15T06:38:16;1.53;;;1.43;;
12155;SDS011;6141;49.092;8.516;2023-04-15T06:40:44;1.80;;;1.70;;
12155;SDS011;6141;49.092;8.516;2023-04-15T06:43:12;1.70;;;1.50;;
12155;SDS011;6141;49.092;8.516;2023-04-15T06:45:42;1.60;;;1.50;;
12155;SDS011;6141;49.092;8.516;2023-04-15T06:48:10;1.80;;;1.70;;
12155;SDS011;6141;49.092;8.516;2023-04-15T06:50:38;1.63;;;1.53;;
12155;SDS011;6141;49.092;8.516;2023-04-15T06:53:06;1.80;;;1.70;;
12155;SDS011;6141;49.092;8.516;2023-04-15T06:55:35;1.70;;;1.60;;
12155;SDS011;6141;49.092;8.516;2023-04-15T06:58:03;1.77;;;1.67;;
12155;SDS011;6141;49.092;8.516;2023-04-15T07:00:31;1.70;;;1.60;;
12155;SDS011;6141;49.092;8.516;2023-04-15T07:03:01;1.40;;;1.30;;
12155;SDS011;6141;49.092;8.516;2023-04-15T07:05:29;1.67;;;1.57;;
12155;SDS011;6141;49.092;8.516;2023-04-15T07:07:57;1.83;;;1.70;;
12155;SDS011;6141;49.092;8.516;2023-04-15T07:10:25;1.67;;;1.57;;
12155;SDS011;6141;49.092;8.516;2023-04-15T07:12:53;1.60;;;1.50;;
12155;SDS011;6141;49.092;8.516;2023-04-15T07:15:21;1.80;;;1.70;;
12155;SDS011;6141;49.092;8.516;2023-04-15T07:17:50;1.80;;;1.70;;
12155;SDS011;6141;49.092;8.516;2023-04-15T07:20:19;3.17;;;1.70;;
12155;SDS011;6141;49.092;8.516;2023-04-15T07:22:47;1.50;;;1.40;;
12155;SDS011;6141;49.092;8.516;2023-04-15T07:25:15;1.63;;;1.53;;
12155;SDS011;6141;49.092;8.516;2023-04-15T07:27:44;1.80;;;1.70;;
12155;SDS011;6141;49.092;8.516;2023-04-15T07:30:12;1.70;;;1.60;;
12155;SDS011;6141;49.092;8.516;2023-04-15T07:32:41;1.53;;;1.43;;
12155;SDS011;6141;49.092;8.516;2023-04-15T07:35:09;1.70;;;1.60;;
12155;SDS011;6141;49.092;8.516;2023-04-15T07:37:38;1.87;;;1.77;;
12155;SDS011;6141;49.092;8.516;2023-04-15T07:40:08;1.70;;;1.60;;
12155;SDS011;6141;49.092;8.516;2023-04-15T07:42:37;1.60;;;1.50;;
12155;SDS011;6141;49.092;8.516;2023-04-15T07:45:07;1.70;;;1.60;;
12155;SDS011;6141;49.092;8.516;2023-04-15T07:47:35;1.50;;;1.40;;
12155;SDS011;6141;49.092;8.516;2023-04-15T07:50:03;1.57;;;1.47;;
12155;SDS011;6141;49.092;8.516;2023-04-15T07:52:32;1.63;;;1.53;;
12155;SDS011;6141;49.092;8.516;2023-04-15T07:55:06;1.67;;;1.57;;
12155;SDS011;6141;49.092;8.516;2023-04-15T07:57:34;1.60;;;1.50;;
12155;SDS011;6141;49.092;8.516;2023-04-15T08:00:03;1.50;;;1.40;;
12155;SDS011;6141;49.092;8.516;2023-04-15T08:02:39;1.60;;;1.50;;
12155;SDS011;6141;49.092;8.516;2023-04-15T08:05:08;1.90;;;1.77;;
12155;SDS011;6141;49.092;8.516;2023-04-15T08:07:36;1.70;;;1.60;;
12155;SDS011;6141;49.092;8.516;2023-04-15T08:10:07;1.70;;;1.60;;
12155;SDS011;6141;49.092;8.516;2023-04-15T08:12:36;1.83;;;1.73;;
12155;SDS011;6141;49.092;8.516;2023-04-15T08:15:04;1.60;;;1.50;;
12155;SDS011;6141;49.092;8.516;2023-04-15T08:17:33;1.80;;;1.70;;
12155;SDS011;6141;49.092;8.516;2023-04-15T08:20:02;2.00;;;1.80;;
12155;SDS011;6141;49.092;8.516;2023-04-15T08:22:31;1.77;;;1.67;;
12155;SDS011;6141;49.092;8.516;2023-04-15T08:24:59;1.73;;;1.63;;
12155;SDS011;6141;49.092;8.516;2023-04-15T08:27:30;1.70;;;1.60;;
12155;SDS011;6141;49.092;8.516;2023-04-15T08:29:57;1.60;;;1.50;;
12155;SDS011;6141;49.092;8.516;2023-04-15T08:32:29;2.03;;;1.70;;
12155;SDS011;6141;49.092;8.516;2023-04-15T08:34:57;1.80;;;1.70;;
12155;SDS011;6141;49.092;8.516;2023-04-15T08:37:25;1.60;;;1.50;;
12155;SDS011;6141;49.092;8.516;2023-04-15T08:39:54;2.00;;;1.90;;
12155;SDS011;6141;49.092;8.516;2023-04-15T08:42:22;1.67;;;1.57;;
12155;SDS011;6141;49.092;8.516;2023-04-15T08:44:59;1.80;;;1.70;;
12155;SDS011;6141;49.092;8.516;2023-04-15T08:47:29;1.50;;;1.40;;
12155;SDS011;6141;49.092;8.516;2023-04-15T08:49:58;1.90;;;1.80;;
12155;SDS011;6141;49.092;8.516;2023-04-15T08:52:30;1.57;;;1.47;;
12155;SDS011;6141;49.092;8.516;2023-04-15T08:54:58;1.67;;;1.57;;
12155;SDS011;6141;49.092;8.516;2023-04-15T08:57:29;1.93;;;1.67;;
12155;SDS011;6141;49.092;8.516;2023-04-15T09:00:00;1.80;;;1.63;;
12155;SDS011;6141;49.092;8.516;2023-04-15T09:02:31;1.47;;;1.37;;
12155;SDS011;6141;49.092;8.516;2023-04-15T09:04:59;1.70;;;1.60;;
12155;SDS011;6141;49.092;8.516;2023-04-15T09:07:32;1.60;;;1.50;;
12155;SDS011;6141;49.092;8.516;2023-04-15T09:10:00;1.80;;;1.70;;
12155;SDS011;6141;49.092;8.516;2023-04-15T09:12:29;1.90;;;1.50;;
12155;SDS011;6141;49.092;8.516;2023-04-15T09:14:57;1.80;;;1.70;;
12155;SDS011;6141;49.092;8.516;2023-04-15T09:17:28;1.80;;;1.70;;
12155;SDS011;6141;49.092;8.516;2023-04-15T09:20:06;1.77;;;1.67;;
12155;SDS011;6141;49.092;8.516;2023-04-15T09:22:35;1.60;;;1.50;;
12155;SDS011;6141;49.092;8.516;2023-04-15T09:25:07;1.93;;;1.60;;
12155;SDS011;6141;49.092;8.516;2023-04-15T09:27:53;1.50;;;1.40;;
12155;SDS011;6141;49.092;8.516;2023-04-15T09:30:22;1.60;;;1.50;;
12155;SDS011;6141;49.092;8.516;2023-04-15T09:32:53;1.53;;;1.43;;
12155;SDS011;6141;49.092;8.516;2023-04-15T09:35:23;1.70;;;1.60;;
12155;SDS011;6141;49.092;8.516;2023-04-15T09:37:53;1.70;;;1.60;;
12155;SDS011;6141;49.092;8.516;2023-04-15T09:40:32;1.70;;;1.60;;
12155;SDS011;6141;49.092;8.516;2023-04-15T09:43:01;2.07;;;1.60;;
12155;SDS011;6141;49.092;8.516;2023-04-15T09:45:30;1.83;;;1.67;;
12155;SDS011;6141;49.092;8.516;2023-04-15T09:48:14;1.60;;;1.50;;
12155;SDS011;6141;49.092;8.516;2023-04-15T09:50:43;1.60;;;1.50;;
12155;SDS011;6141;49.092;8.516;2023-04-15T09:53:14;1.63;;;1.53;;
12155;SDS011;6141;49.092;8.516;2023-04-15T09:55:44;1.67;;;1.53;;
12155;SDS011;6141;49.092;8.516;2023-04-15T09:58:18;2.17;;;2.07;;
12155;SDS011;6141;49.092;8.516;2023-04-15T10:00:48;1.70;;;1.60;;
12155;SDS011;6141;49.092;8.516;2023-04-15T10:03:20;1.90;;;1.80;;
12155;SDS011;6141;49.092;8.516;2023-04-15T10:05:50;1.73;;;1.63;;
12155;SDS011;6141;49.092;8.516;2023-04-15T10:08:19;1.50;;;1.40;;
12155;SDS011;6141;49.092;8.516;2023-04-15T10:10:49;1.87;;;1.60;;
12155;SDS011;6141;49.092;8.516;2023-04-15T10:13:18;2.33;;;1.70;;
12155;SDS011;6141;49.092;8.516;2023-04-15T10:15:49;1.50;;;1.40;;
12155;SDS011;6141;49.092;8.516;2023-04-15T10:18:20;1.60;;;1.50;;
12155;SDS011;6141;49.092;8.516;2023-04-15T10:20:51;1.70;;;1.60;;
12155;SDS011;6141;49.092;8.516;2023-04-15T10:23:21;1.70;;;1.60;;
12155;SDS011;6141;49.092;8.516;2023-04-15T10:25:51;1.63;;;1.53;;
12155;SDS011;6141;49.092;8.516;2023-04-15T10:28:20;1.90;;;1.80;;
12155;SDS011;6141;49.092;8.516;2023-04-15T10:30:49;1.90;;;1.80;;
12155;SDS011;6141;49.092;8.516;2023-04-15T10:33:17;1.83;;;1.67;;
12155;SDS011;6141;49.092;8.516;2023-04-15T10:35:49;1.63;;;1.53;;
12155;SDS011;6141;49.092;8.516;2023-04-15T10:38:32;1.60;;;1.50;;
12155;SDS011;6141;49.092;8.516;2023-04-15T10:41:11;1.67;;;1.53;;
12155;SDS011;6141;49.092;8.516;2023-04-15T11:49:04;9.63;;;6.43;;
12155;SDS011;6141;49.092;8.516;2023-04-15T11:51:33;7.60;;;4.37;;
12155;SDS011;6141;49.092;8.516;2023-04-15T11:54:03;6.30;;;4.00;;
12155;SDS011;6141;49.092;8.516;2023-04-15T11:56:33;4.57;;;3.70;;
12155;SDS011;6141;49.092;8.516;2023-04-15T11:59:01;4.73;;;3.50;;
12155;SDS011;6141;49.092;8.516;2023-04-15T12:01:31;5.03;;;3.97;;
12155;SDS011;6141;49.092;8.516;2023-04-15T12:04:00;8.67;;;4.23;;
12155;SDS011;6141;49.092;8.516;2023-04-15T12:06:32;5.80;;;3.70;;
12155;SDS011;6141;49.092;8.516;2023-04-15T12:09:05;6.07;;;3.90;;
12155;SDS011;6141;49.092;8.516;2023-04-15T12:11:45;5.67;;;3.50;;
12155;SDS011;6141;49.092;8.516;2023-04-15T12:14:20;5.27;;;4.00;;
12155;SDS011;6141;49.092;8.516;2023-04-15T12:16:52;5.83;;;3.67;;
12155;SDS011;6141;49.092;8.516;2023-04-15T12:19:24;7.17;;;4.30;;
12155;SDS011;6141;49.092;8.516;2023-04-15T12:22:00;4.63;;;3.57;;
12155;SDS011;6141;49.092;8.516;2023-04-15T12:24:30;7.03;;;3.57;;
12155;SDS011;6141;49.092;8.516;2023-04-15T12:27:01;4.07;;;3.17;;
12155;SDS011;6141;49.092;8.516;2023-04-15T12:29:31;3.60;;;2.60;;
12155;SDS011;6141;49.092;8.516;2023-04-15T12:32:03;4.13;;;2.30;;
12155;SDS011;6141;49.092;8.516;2023-04-15T12:34:35;4.33;;;2.50;;
12155;SDS011;6141;49.092;8.516;2023-04-15T12:37:06;5.17;;;2.57;;
12155;SDS011;6141;49.092;8.516;2023-04-15T12:39:36;4.27;;;2.40;;
12155;SDS011;6141;49.092;8.516;2023-04-15T12:42:06;2.83;;;2.50;;
12155;SDS011;6141;49.092;8.516;2023-04-15T12:44:36;5.50;;;2.40;;
12155;SDS011;6141;49.092;8.516;2023-04-15T12:47:06;5.43;;;2.33;;
12155;SDS011;6141;49.092;8.516;2023-04-15T12:49:35;4.00;;;2.83;;
12155;SDS011;6141;49.092;8.516;2023-04-15T12:52:06;4.23;;;2.70;;
12155;SDS011;6141;49.092;8.516;2023-04-15T12:54:35;3.23;;;2.13;;
12155;SDS011;6141;49.092;8.516;2023-04-15T12:57:03;5.30;;;2.87;;
12155;SDS011;6141;49.092;8.516;2023-04-15T12:59:33;3.30;;;2.50;;
12155;SDS011;6141;49.092;8.516;2023-04-15T13:02:02;5.40;;;2.93;;
12155;SDS011;6141;49.092;8.516;2023-04-15T13:04:31;10.83;;;3.17;;
12155;SDS011;6141;49.092;8.516;2023-04-15T13:07:00;6.63;;;3.00;;
12155;SDS011;6141;49.092;8.516;2023-04-15T13:09:30;4.37;;;2.93;;
12155;SDS011;6141;49.092;8.516;2023-04-15T13:11:59;4.47;;;2.80;;
12155;SDS011;6141;49.092;8.516;2023-04-15T13:14:27;4.83;;;2.50;;
12155;SDS011;6141;49.092;8.516;2023-04-15T13:16:56;5.23;;;3.23;;
12155;SDS011;6141;49.092;8.516;2023-04-15T13:19:24;3.67;;;2.97;;
12155;SDS011;6141;49.092;8.516;2023-04-15T13:21:53;5.00;;;2.93;;
12155;SDS011;6141;49.092;8.516;2023-04-15T13:24:24;5.40;;;3.07;;
12155;SDS011;6141;49.092;8.516;2023-04-15T13:26:54;3.77;;;2.87;;
12155;SDS011;6141;49.092;8.516;2023-04-15T13:29:24;4.93;;;3.17;;
12155;SDS011;6141;49.092;8.516;2023-04-15T13:31:54;4.77;;;2.87;;
12155;SDS011;6141;49.092;8.516;2023-04-15T13:34:23;5.40;;;3.20;;
12155;SDS011;6141;49.092;8.516;2023-04-15T13:36:52;4.50;;;3.20;;
12155;SDS011;6141;49.092;8.516;2023-04-15T13:39:23;4.13;;;3.03;;
12155;SDS011;6141;49.092;8.516;2023-04-15T13:41:52;5.23;;;2.77;;
12155;SDS011;6141;49.092;8.516;2023-04-15T13:44:22;3.93;;;2.70;;
12155;SDS011;6141;49.092;8.516;2023-04-15T13:46:51;4.73;;;2.67;;
12155;SDS011;6141;49.092;8.516;2023-04-15T13:49:19;3.10;;;2.00;;
12155;SDS011;6141;49.092;8.516;2023-04-15T13:51:49;3.37;;;2.27;;
12155;SDS011;6141;49.092;8.516;2023-04-15T13:54:18;2.97;;;2.07;;
12155;SDS011;6141;49.092;8.516;2023-04-15T13:56:47;3.60;;;2.50;;
12155;SDS011;6141;49.092;8.516;2023-04-15T13:59:16;5.50;;;3.10;;
12155;SDS011;6141;49.092;8.516;2023-04-15T14:01:46;2.50;;;2.17;;
12155;SDS011;6141;49.092;8.516;2023-04-15T14:04:15;3.13;;;2.30;;
12155;SDS011;6141;49.092;8.516;2023-04-15T14:06:43;4.23;;;2.60;;
12155;SDS011;6141;49.092;8.516;2023-04-15T14:09:14;3.87;;;2.57;;
12155;SDS011;6141;49.092;8.516;2023-04-15T14:11:43;3.47;;;2.60;;
12155;SDS011;6141;49.092;8.516;2023-04-15T14:14:11;6.93;;;2.43;;
12155;SDS011;6141;49.092;8.516;2023-04-15T14:16:41;2.83;;;2.40;;
12155;SDS011;6141;49.092;8.516;2023-04-15T14:19:13;3.90;;;2.03;;
12155;SDS011;6141;49.092;8.516;2023-04-15T14:21:42;3.03;;;2.00;;
12155;SDS011;6141;49.092;8.516;2023-04-15T14:24:10;3.80;;;2.30;;
12155;SDS011;6141;49.092;8.516;2023-04-15T14:26:39;4.73;;;2.80;;
12155;SDS011;6141;49.092;8.516;2023-04-15T14:29:09;3.93;;;2.40;;
12155;SDS011;6141;49.092;8.516;2023-04-15T14:31:38;3.43;;;2.30;;
12155;SDS011;6141;49.092;8.516;2023-04-15T14:34:07;2.67;;;1.97;;
12155;SDS011;6141;49.092;8.516;2023-04-15T14:36:42;4.07;;;1.93;;
12155;SDS011;6141;49.092;8.516;2023-04-15T14:39:12;2.53;;;1.60;;
12155;SDS011;6141;49.092;8.516;2023-04-15T14:41:41;3.10;;;1.90;;
12155;SDS011;6141;49.092;8.516;2023-04-15T14:44:10;2.40;;;1.87;;
12155;SDS011;6141;49.092;8.516;2023-04-15T14:46:39;3.70;;;2.10;;
12155;SDS011;6141;49.092;8.516;2023-04-15T14:49:08;3.57;;;1.77;;
12155;SDS011;6141;49.092;8.516;2023-04-15T14:51:37;2.10;;;1.50;;
12155;SDS011;6141;49.092;8.516;2023-04-15T14:54:08;2.90;;;1.43;;
12155;SDS011;6141;49.092;8.516;2023-04-15T14:56:37;2.87;;;1.40;;
12155;SDS011;6141;49.092;8.516;2023-04-15T14:59:05;1.97;;;1.30;;
12155;SDS011;6141;49.092;8.516;2023-04-15T15:01:34;2.20;;;1.30;;
12155;SDS011;6141;49.092;8.516;2023-04-15T15:04:02;2.60;;;1.33;;
12155;SDS011;6141;49.092;8.516;2023-04-15T15:06:31;1.60;;;1.20;;
12155;SDS011;6141;49.092;8.516;2023-04-15T15:09:01;3.03;;;1.40;;
12155;SDS011;6141;49.092;8.516;2023-04-15T15:11:35;2.70;;;1.30;;
12155;SDS011;6141;49.092;8.516;2023-04-15T15:14:03;1.97;;;1.10;;
12155;SDS011;6141;49.092;8.516;2023-04-15T15:16:32;1.83;;;1.23;;
12155;SDS011;6141;49.092;8.516;2023-04-15T15:19:02;2.47;;;1.13;;
12155;SDS011;6141;49.092;8.516;2023-04-15T15:21:31;4.03;;;1.30;;
12155;SDS011;6141;49.092;8.516;2023-04-15T15:24:00;1.13;;;1.00;;
12155;SDS011;6141;49.092;8.516;2023-04-15T15:26:28;3.97;;;1.10;;
12155;SDS011;6141;49.092;8.516;2023-04-15T15:28:59;1.33;;;1.10;;
12155;SDS011;6141;49.092;8.516;2023-04-15T15:31:29;1.70;;;1.20;;
12155;SDS011;6141;49.092;8.516;2023-04-15T15:33:57;3.90;;;1.17;;
12155;SDS011;6141;49.092;8.516;2023-04-15T15:36:26;1.23;;;0.97;;
12155;SDS011;6141;49.092;8.516;2023-04-15T15:38:56;2.40;;;1.53;;
12155;SDS011;6141;49.092;8.516;2023-04-15T15:41:28;1.90;;;1.17;;
12155;SDS011;6141;49.092;8.516;2023-04-15T15:44:00;1.63;;;1.30;;
12155;SDS011;6141;49.092;8.516;2023-04-15T15:46:29;2.23;;;1.40;;
12155;SDS011;6141;49.092;8.516;2023-04-15T15:48:57;2.67;;;1.57;;
12155;SDS011;6141;49.092;8.516;2023-04-15T15:51:26;2.00;;;1.50;;
12155;SDS011;6141;49.092;8.516;2023-04-15T15:53:55;1.77;;;1.60;;
12155;SDS011;6141;49.092;8.516;2023-04-15T15:56:24;2.37;;;1.40;;
12155;SDS011;6141;49.092;8.516;2023-04-15T15:58:53;2.33;;;1.30;;
12155;SDS011;6141;49.092;8.516;2023-04-15T16:01:23;1.90;;;1.57;;
12155;SDS011;6141;49.092;8.516;2023-04-15T16:03:52;2.03;;;1.47;;
12155;SDS011;6141;49.092;8.516;2023-04-15T16:06:21;1.77;;;1.37;;
12155;SDS011;6141;49.092;8.516;2023-04-15T16:08:50;1.50;;;1.37;;
12155;SDS011;6141;49.092;8.516;2023-04-15T16:11:19;1.50;;;1.40;;
12155;SDS011;6141;49.092;8.516;2023-04-15T16:13:47;1.57;;;1.47;;
12155;SDS011;6141;49.092;8.516;2023-04-15T16:16:16;1.50;;;1.40;;
12155;SDS011;6141;49.092;8.516;2023-04-15T16:18:46;1.67;;;1.57;;